createdAt,value
2023-04-04T00:00:55.726Z,3.03
2023-04-04T00:03:23.200Z,3.10
2023-04-04T00:05:51.556Z,3.10
2023-04-04T00:08:19.024Z,2.57
2023-04-04T00:10:47.796Z,2.73
2023-04-04T00:13:15.291Z,3.10
2023-04-04T00:15:42.692Z,2.80
2023-04-04T00:18:10.174Z,3.13
2023-04-04T00:20:37.736Z,3.03
2023-04-04T00:23:05.310Z,3.17
2023-04-04T00:25:32.733Z,3.67
2023-04-04T00:28:03.080Z,4.27
2023-04-04T00:30:31.260Z,2.77
2023-04-04T00:32:58.752Z,3.10
2023-04-04T00:35:26.379Z,2.77
2023-04-04T00:37:53.891Z,3.27
2023-04-04T00:40:21.376Z,3.10
2023-04-04T00:42:48.803Z,2.80
2023-04-04T00:45:17.561Z,3.40
2023-04-04T00:47:45.176Z,3.20
2023-04-04T00:50:12.642Z,3.10
2023-04-04T00:52:40.181Z,3.03
2023-04-04T00:55:08.170Z,2.93
2023-04-04T00:57:35.869Z,3.17
2023-04-04T01:00:05.384Z,3.70
2023-04-04T01:02:34.182Z,3.00
2023-04-04T01:05:01.665Z,2.90
2023-04-04T01:07:29.476Z,3.67
2023-04-04T01:09:57.406Z,3.30
2023-04-04T01:12:24.868Z,3.83
2023-04-04T01:14:52.815Z,3.67
2023-04-04T01:17:20.669Z,3.87
2023-04-04T01:19:52.593Z,3.50
2023-04-04T01:22:20.977Z,3.60
2023-04-04T01:24:50.225Z,3.50
2023-04-04T01:27:19.772Z,3.03
2023-04-04T01:29:54.945Z,5.17
2023-04-04T01:32:28.219Z,3.60
2023-04-04T01:35:01.586Z,3.70
2023-04-04T01:37:36.550Z,3.33
2023-04-04T01:40:09.437Z,3.80
2023-04-04T01:42:39.006Z,3.93
2023-04-04T01:45:08.203Z,3.10
2023-04-04T01:47:40.532Z,3.80
2023-04-04T01:50:10.344Z,3.40
2023-04-04T01:52:38.395Z,3.23
2023-04-04T01:55:06.087Z,3.50
2023-04-04T01:57:34.271Z,3.70
2023-04-04T02:00:03.383Z,3.53
2023-04-04T02:02:31.305Z,3.23
2023-04-04T02:04:59.251Z,3.30
2023-04-04T02:07:26.645Z,3.53
2023-04-04T02:09:54.277Z,3.67
2023-04-04T02:12:22.222Z,3.43
2023-04-04T02:14:50.103Z,3.50
2023-04-04T02:17:19.051Z,3.70
2023-04-04T02:19:46.462Z,3.60
2023-04-04T02:22:13.926Z,3.47
2023-04-04T02:24:41.466Z,3.40
2023-04-04T02:27:08.993Z,3.40
2023-04-04T02:29:36.383Z,3.43
2023-04-04T02:32:03.752Z,3.70
2023-04-04T02:34:32.745Z,3.60
2023-04-04T02:37:00.230Z,3.80
2023-04-04T02:39:29.440Z,3.50
2023-04-04T02:41:57.469Z,5.53
2023-04-04T02:44:24.895Z,3.57
2023-04-04T02:46:53.608Z,4.03
2023-04-04T02:49:28.655Z,3.80
2023-04-04T02:51:58.544Z,3.77
2023-04-04T02:54:30.649Z,3.80
2023-04-04T02:56:58.617Z,3.63
2023-04-04T02:59:26.208Z,3.50
2023-04-04T03:01:53.707Z,3.53
2023-04-04T03:04:21.660Z,3.43
2023-04-04T03:06:49.080Z,3.60
2023-04-04T03:09:17.806Z,3.97
2023-04-04T03:11:45.812Z,4.37
2023-04-04T03:14:13.220Z,3.70
2023-04-04T03:16:40.965Z,4.13
2023-04-04T03:19:08.425Z,3.37
2023-04-04T03:21:35.897Z,3.83
2023-04-04T03:24:03.313Z,3.03
2023-04-04T03:26:32.094Z,3.03
2023-04-04T03:28:59.515Z,4.17
2023-04-04T03:31:27.403Z,3.87
2023-04-04T03:33:54.864Z,3.53
2023-04-04T03:36:23.003Z,3.83
2023-04-04T03:38:51.352Z,3.70
2023-04-04T03:41:18.728Z,3.77
2023-04-04T03:43:48.256Z,4.10
2023-04-04T03:46:15.834Z,3.47
2023-04-04T03:48:45.572Z,4.10
2023-04-04T03:51:13.020Z,3.57
2023-04-04T03:53:40.714Z,3.83
2023-04-04T03:56:08.429Z,3.93
2023-04-04T03:58:36.418Z,4.13
2023-04-04T04:01:05.363Z,4.33
2023-04-04T04:03:32.822Z,3.80
2023-04-04T04:06:00.724Z,4.13
2023-04-04T04:08:28.294Z,5.50
2023-04-04T04:10:55.729Z,4.07
2023-04-04T04:13:23.166Z,3.43
2023-04-04T04:15:51.463Z,3.70
2023-04-04T04:18:23.788Z,4.13
2023-04-04T04:20:57.313Z,4.00
2023-04-04T04:23:24.734Z,4.30
2023-04-04T04:25:52.580Z,3.70
2023-04-04T04:28:23.785Z,3.60
2023-04-04T04:31:05.000Z,4.33
2023-04-04T04:33:33.804Z,4.03
2023-04-04T04:36:05.558Z,3.83
2023-04-04T04:38:42.755Z,3.83
2023-04-04T04:41:10.331Z,3.60
2023-04-04T04:43:44.070Z,4.50
2023-04-04T04:46:11.572Z,4.03
2023-04-04T04:48:40.422Z,4.07
2023-04-04T04:51:08.740Z,4.10
2023-04-04T04:53:42.291Z,4.37
2023-04-04T04:56:09.948Z,5.57
2023-04-04T04:58:40.928Z,4.03
2023-04-04T05:01:11.150Z,4.07
2023-04-04T05:03:42.154Z,3.93
2023-04-04T05:06:13.702Z,4.50
2023-04-04T05:08:41.129Z,4.00
2023-04-04T05:11:27.167Z,3.67
2023-04-04T05:13:55.113Z,4.23
2023-04-04T05:16:24.575Z,4.00
2023-04-04T05:18:56.742Z,4.47
2023-04-04T05:21:24.478Z,3.97
2023-04-04T05:23:53.715Z,3.93
2023-04-04T05:26:23.312Z,4.10
2023-04-04T05:28:54.012Z,4.20
2023-04-04T05:31:22.441Z,3.63
2023-04-04T05:33:52.169Z,4.20
2023-04-04T05:36:29.808Z,3.90
2023-04-04T05:39:04.629Z,3.80
2023-04-04T05:41:33.950Z,4.57
2023-04-04T05:44:09.503Z,4.27
2023-04-04T05:46:37.778Z,4.43
2023-04-04T05:49:05.799Z,4.77
2023-04-04T05:51:36.441Z,4.33
2023-04-04T05:54:12.820Z,4.37
2023-04-04T05:56:40.777Z,4.30
2023-04-04T05:59:16.099Z,4.53
2023-04-04T06:01:52.957Z,4.57
2023-04-04T06:04:20.905Z,4.20
2023-04-04T06:06:50.004Z,4.90
2023-04-04T06:09:17.620Z,4.30
2023-04-04T06:11:45.231Z,5.03
2023-04-04T06:14:14.705Z,4.50
2023-04-04T06:16:43.429Z,3.90
2023-04-04T06:19:10.781Z,4.50
2023-04-04T06:21:38.193Z,4.07
2023-04-04T06:24:08.132Z,4.40
2023-04-04T06:26:35.629Z,4.70
2023-04-04T06:29:04.704Z,4.00
2023-04-04T06:31:34.725Z,6.57
2023-04-04T06:34:09.994Z,4.23
2023-04-04T06:36:50.497Z,4.30
2023-04-04T06:39:19.299Z,5.67
2023-04-04T06:41:48.880Z,4.27
2023-04-04T06:44:16.752Z,3.90
2023-04-04T06:46:44.677Z,6.97
2023-04-04T06:49:12.136Z,4.40
2023-04-04T06:51:41.157Z,5.40
2023-04-04T06:54:08.760Z,4.27
2023-04-04T06:56:38.746Z,4.57
2023-04-04T06:59:06.194Z,4.67
2023-04-04T07:01:34.252Z,3.97
2023-04-04T07:04:01.668Z,4.23
2023-04-04T07:06:29.736Z,4.83
2023-04-04T07:08:57.396Z,4.43
2023-04-04T07:11:24.851Z,4.53
2023-04-04T07:13:53.607Z,5.37
2023-04-04T07:16:21.091Z,4.53
2023-04-04T07:18:48.510Z,4.13
2023-04-04T07:21:16.180Z,4.03
2023-04-04T07:23:43.536Z,4.50
2023-04-04T07:26:11.701Z,4.57
2023-04-04T07:28:39.101Z,4.07
2023-04-04T07:31:07.828Z,4.47
2023-04-04T07:33:35.248Z,5.80
2023-04-04T07:36:02.963Z,4.70
2023-04-04T07:38:31.082Z,3.93
2023-04-04T07:40:58.432Z,4.50
2023-04-04T07:43:25.840Z,4.53
2023-04-04T07:45:55.022Z,4.50
2023-04-04T07:48:23.840Z,4.30
2023-04-04T07:50:51.226Z,4.27
2023-04-04T07:53:18.671Z,4.53
2023-04-04T07:55:46.098Z,4.03
2023-04-04T07:58:13.528Z,3.73
2023-04-04T08:00:41.038Z,4.07
2023-04-04T08:03:08.677Z,3.90
2023-04-04T08:05:37.550Z,4.00
2023-04-04T08:08:04.939Z,3.87
2023-04-04T08:10:32.336Z,4.27
2023-04-04T08:12:59.871Z,3.87
2023-04-04T08:15:27.365Z,4.53
2023-04-04T08:17:56.091Z,4.30
2023-04-04T08:20:23.560Z,4.33
2023-04-04T08:22:52.403Z,4.00
2023-04-04T08:25:19.878Z,3.93
2023-04-04T08:27:47.555Z,4.00
2023-04-04T08:30:15.387Z,3.80
2023-04-04T08:32:44.135Z,4.73
2023-04-04T08:35:11.669Z,3.50
2023-04-04T08:37:39.540Z,3.60
2023-04-04T08:40:10.026Z,4.00
2023-04-04T08:42:39.551Z,3.83
2023-04-04T08:45:09.363Z,4.27
2023-04-04T08:47:38.482Z,3.90
2023-04-04T08:50:06.409Z,8.57
2023-04-04T08:52:34.506Z,3.83
2023-04-04T08:55:02.763Z,3.70
2023-04-04T08:57:31.539Z,3.93
2023-04-04T08:59:59.061Z,3.90
2023-04-04T09:02:29.114Z,4.03
2023-04-04T09:05:05.665Z,3.73
2023-04-04T09:07:36.443Z,3.77
2023-04-04T09:10:05.743Z,3.90
2023-04-04T09:12:37.090Z,4.07
2023-04-04T09:15:04.825Z,3.80
2023-04-04T09:17:32.304Z,4.20
2023-04-04T09:20:03.696Z,3.90
2023-04-04T09:22:31.136Z,3.90
2023-04-04T09:24:58.531Z,4.10
2023-04-04T09:27:26.048Z,5.77
2023-04-04T09:29:54.877Z,4.00
2023-04-04T09:32:23.040Z,3.90
2023-04-04T09:34:50.881Z,3.90
2023-04-04T09:37:18.574Z,4.10
2023-04-04T09:39:46.484Z,4.20
2023-04-04T09:42:14.101Z,3.87
2023-04-04T09:44:41.504Z,3.80
2023-04-04T09:49:58.741Z,4.00
2023-04-04T09:52:26.188Z,4.10
2023-04-04T09:54:58.047Z,3.93
2023-04-04T09:57:25.998Z,3.50
2023-04-04T09:59:53.394Z,3.80
2023-04-04T10:02:20.856Z,3.70
2023-04-04T10:04:56.546Z,4.07
2023-04-04T10:07:32.114Z,3.43
2023-04-04T10:10:03.351Z,4.20
2023-04-04T10:12:31.320Z,4.00
2023-04-04T10:14:59.066Z,4.43
2023-04-04T10:17:31.060Z,3.60
2023-04-04T10:20:00.890Z,3.40
2023-04-04T10:22:28.583Z,3.60
2023-04-04T10:24:56.225Z,3.30
2023-04-04T10:27:23.629Z,3.60
2023-04-04T10:29:51.153Z,3.57
2023-04-04T10:32:23.333Z,3.90
2023-04-04T10:34:54.943Z,3.63
2023-04-04T10:37:27.004Z,3.17
2023-04-04T10:39:56.674Z,3.47
2023-04-04T10:42:26.153Z,3.20
2023-04-04T10:44:54.071Z,3.70
2023-04-04T10:47:23.052Z,3.30
2023-04-04T10:49:51.075Z,3.67
2023-04-04T10:52:19.848Z,3.23
2023-04-04T10:54:50.792Z,3.47
2023-04-04T10:57:18.326Z,3.80
2023-04-04T10:59:58.652Z,3.00
2023-04-04T11:02:44.767Z,3.40
2023-04-04T11:05:12.741Z,3.37
2023-04-04T11:07:41.244Z,3.57
2023-04-04T11:10:16.088Z,3.47
2023-04-04T11:12:45.045Z,3.20
2023-04-04T11:15:13.180Z,3.20
2023-04-04T11:18:17.347Z,3.20
2023-04-04T11:20:51.928Z,3.20
2023-04-04T11:23:23.406Z,3.30
2023-04-04T11:25:53.092Z,3.17
2023-04-04T11:28:27.436Z,3.33
2023-04-04T11:31:13.726Z,3.07
2023-04-04T11:33:55.055Z,3.60
2023-04-04T11:36:25.587Z,3.67
2023-04-04T11:38:53.628Z,3.40
2023-04-04T11:41:23.886Z,4.10
2023-04-04T11:43:51.311Z,3.30
2023-04-04T11:46:19.533Z,3.03
2023-04-04T11:48:47.110Z,3.50
2023-04-04T11:51:14.761Z,3.30
2023-04-04T11:53:43.417Z,3.47
2023-04-04T11:56:15.851Z,3.50
2023-04-04T11:58:47.596Z,3.53
2023-04-04T12:01:15.256Z,3.33
2023-04-04T12:03:42.743Z,2.77
2023-04-04T12:06:12.224Z,4.00
2023-04-04T12:08:40.380Z,3.00
2023-04-04T12:11:09.340Z,3.50
2023-04-04T12:13:42.702Z,2.97
2023-04-04T12:16:11.713Z,3.17
2023-04-04T12:18:39.117Z,3.60
2023-04-04T12:21:07.584Z,2.90
2023-04-04T12:23:35.427Z,3.23
2023-04-04T12:26:03.979Z,4.70
2023-04-04T12:28:33.083Z,3.50
2023-04-04T12:31:05.378Z,3.30
2023-04-04T12:33:34.648Z,3.60
2023-04-04T12:36:03.914Z,3.63
2023-04-04T12:38:31.498Z,3.20
2023-04-04T12:40:59.135Z,3.30
2023-04-04T12:43:28.684Z,2.97
2023-04-04T12:45:57.684Z,3.00
2023-04-04T12:48:28.098Z,3.50
2023-04-04T12:50:57.680Z,3.50
2023-04-04T12:53:29.484Z,3.30
2023-04-04T12:56:00.826Z,3.20
2023-04-04T12:58:28.261Z,3.70
2023-04-04T13:00:56.827Z,3.93
2023-04-04T13:03:25.381Z,3.00
2023-04-04T13:05:53.208Z,3.87
2023-04-04T13:08:22.078Z,3.20
2023-04-04T13:10:59.750Z,3.47
2023-04-04T13:13:37.174Z,3.43
2023-04-04T13:16:06.197Z,3.27
2023-04-04T13:18:35.409Z,3.97
2023-04-04T13:21:02.778Z,3.47
2023-04-04T13:23:31.643Z,4.13
2023-04-04T13:25:59.673Z,3.60
2023-04-04T13:28:27.561Z,4.47
2023-04-04T13:30:55.009Z,3.80
2023-04-04T13:33:23.157Z,3.80
2023-04-04T13:35:50.999Z,4.27
2023-04-04T13:38:18.589Z,3.87
2023-04-04T13:40:47.327Z,5.37
2023-04-04T13:43:15.130Z,3.67
2023-04-04T13:45:43.810Z,3.43
2023-04-04T13:48:11.488Z,3.97
2023-04-04T13:50:39.694Z,3.60
2023-04-04T13:53:07.430Z,3.50
2023-04-04T13:55:34.813Z,3.63
2023-04-04T13:58:03.609Z,4.23
2023-04-04T14:00:31.988Z,4.00
2023-04-04T14:02:59.442Z,3.97
2023-04-04T14:05:26.921Z,3.23
2023-04-04T14:07:54.353Z,3.30
2023-04-04T14:10:21.783Z,4.23
2023-04-04T14:12:49.171Z,3.90
2023-04-04T14:15:18.526Z,3.20
2023-04-04T14:17:46.078Z,3.40
2023-04-04T14:20:13.572Z,3.77
2023-04-04T14:22:41.004Z,3.60
2023-04-04T14:25:08.758Z,3.50
2023-04-04T14:27:36.592Z,3.47
2023-04-04T14:30:04.138Z,3.53
2023-04-04T14:32:33.938Z,3.70
2023-04-04T14:35:01.512Z,3.60
2023-04-04T14:37:28.848Z,3.20
2023-04-04T14:39:56.227Z,2.87
2023-04-04T14:42:23.653Z,3.30
2023-04-04T14:44:51.086Z,3.40
2023-04-04T14:47:18.617Z,3.90
2023-04-04T14:49:47.371Z,3.43
2023-04-04T14:52:14.730Z,3.57
2023-04-04T14:54:42.120Z,3.17
2023-04-04T14:57:09.502Z,3.47
2023-04-04T14:59:36.830Z,3.23
2023-04-04T15:02:04.204Z,3.23
2023-04-04T15:04:31.823Z,3.50
2023-04-04T15:07:03.036Z,3.87
2023-04-04T15:09:31.124Z,4.57
2023-04-04T15:11:58.739Z,3.00
2023-04-04T15:14:26.250Z,3.43
2023-04-04T15:16:54.256Z,3.73
2023-04-04T15:19:21.836Z,3.67
2023-04-04T15:21:49.438Z,3.70
2023-04-04T15:24:18.146Z,3.30
2023-04-04T15:26:45.595Z,3.10
2023-04-04T15:29:14.578Z,3.50
2023-04-04T15:31:42.601Z,4.13
2023-04-04T15:34:10.540Z,3.33
2023-04-04T15:36:37.977Z,3.30
2023-04-04T15:39:05.424Z,4.13
2023-04-04T15:41:34.229Z,3.60
2023-04-04T15:44:01.742Z,3.67
2023-04-04T15:46:29.245Z,3.60
2023-04-04T15:48:56.680Z,3.70
2023-04-04T15:51:25.485Z,3.50
2023-04-04T15:53:54.721Z,3.70
2023-04-04T15:56:22.166Z,4.10
2023-04-04T15:58:50.898Z,3.90
2023-04-04T16:01:18.330Z,3.70
2023-04-04T16:03:45.998Z,3.73
2023-04-04T16:06:13.767Z,3.43
2023-04-04T16:08:41.422Z,3.27
2023-04-04T16:11:08.865Z,4.73
2023-04-04T16:13:36.373Z,3.57
2023-04-04T16:16:05.762Z,3.20
2023-04-04T16:18:33.225Z,3.37
2023-04-04T16:21:03.116Z,3.50
2023-04-04T16:23:30.632Z,3.50
2023-04-04T16:25:58.037Z,3.43
2023-04-04T16:28:25.456Z,3.60
2023-04-04T16:30:53.036Z,3.60
2023-04-04T16:33:23.854Z,3.93
2023-04-04T16:35:51.230Z,4.00
2023-04-04T16:38:18.623Z,3.57
2023-04-04T16:40:46.111Z,3.33
2023-04-04T16:43:13.550Z,4.07
2023-04-04T16:45:41.288Z,4.10
2023-04-04T16:48:09.021Z,3.33
2023-04-04T16:50:38.198Z,3.60
2023-04-04T16:53:06.070Z,4.10
2023-04-04T16:55:33.478Z,3.77
2023-04-04T16:58:01.115Z,3.70
2023-04-04T17:00:28.968Z,3.77
2023-04-04T17:02:57.720Z,4.00
2023-04-04T17:05:25.712Z,3.60
2023-04-04T17:07:54.466Z,4.67
2023-04-04T17:10:22.046Z,4.27
2023-04-04T17:12:49.617Z,4.40
2023-04-04T17:15:17.892Z,3.93
2023-04-04T17:17:45.546Z,4.17
2023-04-04T17:20:17.323Z,3.80
2023-04-04T17:22:45.538Z,4.53
2023-04-04T17:25:14.254Z,5.07
2023-04-04T17:27:41.815Z,4.07
2023-04-04T17:30:09.866Z,3.77
2023-04-04T17:32:37.303Z,4.03
2023-04-04T17:35:05.220Z,4.10
2023-04-04T17:37:32.591Z,4.30
2023-04-04T17:40:00.604Z,5.67
2023-04-04T17:42:29.425Z,4.40
2023-04-04T17:44:56.841Z,3.90
2023-04-04T17:47:24.300Z,4.80
2023-04-04T17:49:52.315Z,4.33
2023-04-04T17:52:20.108Z,4.23
2023-04-04T17:54:48.512Z,4.37
2023-04-04T17:57:15.946Z,4.17
2023-04-04T17:59:45.021Z,3.80
2023-04-04T18:02:12.598Z,3.90
2023-04-04T18:04:40.002Z,3.50
2023-04-04T18:07:08.367Z,4.33
2023-04-04T18:09:36.025Z,5.03
2023-04-04T18:12:03.465Z,4.47
2023-04-04T18:14:30.847Z,3.73
2023-04-04T18:16:59.609Z,5.00
2023-04-04T18:19:27.050Z,3.70
2023-04-04T18:21:59.496Z,5.17
2023-04-04T18:24:27.042Z,5.10
2023-04-04T18:26:54.680Z,6.33
2023-04-04T18:29:22.122Z,4.93
2023-04-04T18:31:49.536Z,5.90
2023-04-04T18:34:18.374Z,4.60
2023-04-04T18:36:48.037Z,4.23
2023-04-04T18:39:18.409Z,7.53
2023-04-04T18:41:45.951Z,7.60
2023-04-04T18:44:13.663Z,5.03
2023-04-04T18:46:41.220Z,4.50
2023-04-04T18:49:08.827Z,4.90
2023-04-04T18:51:37.570Z,5.17
2023-04-04T18:54:05.329Z,4.77
2023-04-04T18:56:32.735Z,4.20
2023-04-04T18:59:01.907Z,4.27
2023-04-04T19:01:31.138Z,4.07
2023-04-04T19:03:58.598Z,4.73
2023-04-04T19:06:27.333Z,4.23
2023-04-04T19:08:58.503Z,3.90
2023-04-04T19:11:26.260Z,4.23
2023-04-04T19:13:53.646Z,4.63
2023-04-04T19:16:21.095Z,4.23
2023-04-04T19:18:48.499Z,4.40
2023-04-04T19:21:16.034Z,4.47
2023-04-04T19:23:43.427Z,4.30
2023-04-04T19:26:12.138Z,5.20
2023-04-04T19:28:39.570Z,5.13
2023-04-04T19:31:10.541Z,5.80
2023-04-04T19:33:38.542Z,4.70
2023-04-04T19:36:08.873Z,4.80
2023-04-04T19:38:36.934Z,4.70
2023-04-04T19:41:07.862Z,4.53
2023-04-04T19:43:36.868Z,4.03
2023-04-04T19:46:08.034Z,4.57
2023-04-04T19:48:39.593Z,4.67
2023-04-04T19:51:07.927Z,4.73
2023-04-04T19:53:35.346Z,4.63
2023-04-04T19:56:04.059Z,4.70
2023-04-04T19:58:31.520Z,4.90
2023-04-04T20:01:00.235Z,4.90
2023-04-04T20:03:30.192Z,4.80
2023-04-04T20:06:10.708Z,5.10
2023-04-04T20:08:39.603Z,4.87
2023-04-04T20:11:07.712Z,5.20
2023-04-04T20:13:36.012Z,4.93
2023-04-04T20:16:06.443Z,6.33
2023-04-04T20:18:34.488Z,5.40
2023-04-04T20:21:03.067Z,5.20
2023-04-04T20:23:32.532Z,5.00
2023-04-04T20:26:05.140Z,5.30
2023-04-04T20:28:32.674Z,4.90
2023-04-04T20:31:01.683Z,5.20
2023-04-04T20:33:32.319Z,5.03
2023-04-04T20:36:01.592Z,4.67
2023-04-04T20:38:28.996Z,5.00
2023-04-04T20:40:56.508Z,4.97
2023-04-04T20:43:24.007Z,5.00
2023-04-04T20:45:51.477Z,4.67
2023-04-04T20:48:37.061Z,4.60
2023-04-04T20:51:07.867Z,4.97
2023-04-04T20:53:35.554Z,4.80
2023-04-04T20:56:06.158Z,4.17
2023-04-04T20:58:33.607Z,4.80
2023-04-04T21:01:01.834Z,5.13
2023-04-04T21:03:33.510Z,5.73
2023-04-04T21:06:09.380Z,4.70
2023-04-04T21:08:42.353Z,5.20
2023-04-04T21:11:10.399Z,6.67
2023-04-04T21:13:38.605Z,5.40
2023-04-04T21:16:08.581Z,5.37
2023-04-04T21:18:36.530Z,5.23
2023-04-04T21:21:16.857Z,5.40
2023-04-04T21:23:45.807Z,5.30
2023-04-04T21:26:19.825Z,5.70
2023-04-04T21:28:47.243Z,4.93
2023-04-04T21:31:15.591Z,4.77
2023-04-04T21:33:43.336Z,5.27
2023-04-04T21:36:12.065Z,5.60
2023-04-04T21:38:40.827Z,5.27
2023-04-04T21:41:11.697Z,5.20
2023-04-04T21:43:39.025Z,5.40
2023-04-04T21:46:06.493Z,5.47
2023-04-04T21:48:33.897Z,5.03
2023-04-04T21:51:01.471Z,5.37
2023-04-04T21:53:28.980Z,6.43
2023-04-04T21:55:57.730Z,5.50
2023-04-04T21:58:25.229Z,5.60
2023-04-04T22:00:52.618Z,5.73
2023-04-04T22:03:20.039Z,5.70
2023-04-04T22:05:48.340Z,5.50
2023-04-04T22:08:15.780Z,5.80
2023-04-04T22:10:47.393Z,5.13
2023-04-04T22:13:18.567Z,5.27
2023-04-04T22:15:46.968Z,6.73
2023-04-04T22:18:15.697Z,6.00
2023-04-04T22:20:43.512Z,5.50
2023-04-04T22:23:11.478Z,5.57
2023-04-04T22:25:39.007Z,5.97
2023-04-04T22:28:08.532Z,5.80
2023-04-04T22:30:38.901Z,5.60
2023-04-04T22:33:06.976Z,5.43
2023-04-04T22:35:34.658Z,5.43
2023-04-04T22:38:03.085Z,5.60
2023-04-04T22:40:31.099Z,5.20
2023-04-04T22:42:58.747Z,5.53
2023-04-04T22:45:26.895Z,5.83
2023-04-04T22:47:57.805Z,6.10
2023-04-04T22:50:26.616Z,5.77
2023-04-04T22:52:54.703Z,6.17
2023-04-04T22:55:23.335Z,6.03
2023-04-04T22:57:50.948Z,5.77
2023-04-04T23:00:18.867Z,5.80
2023-04-04T23:02:47.051Z,5.70
2023-04-04T23:05:16.984Z,5.90
2023-04-04T23:07:45.235Z,6.10
2023-04-04T23:10:13.461Z,5.83
2023-04-04T23:12:41.182Z,5.93
2023-04-04T23:15:09.338Z,6.27
2023-04-04T23:17:38.611Z,6.17
2023-04-04T23:20:09.343Z,5.70
2023-04-04T23:22:38.875Z,6.03
2023-04-04T23:25:07.740Z,5.73
2023-04-04T23:27:35.313Z,6.77
2023-04-04T23:30:04.843Z,5.90
2023-04-04T23:32:32.458Z,5.63
2023-04-04T23:34:59.930Z,6.03
2023-04-04T23:37:27.366Z,5.53
2023-04-04T23:39:56.219Z,6.20
2023-04-04T23:42:24.604Z,5.83
2023-04-04T23:44:52.215Z,6.20
2023-04-04T23:47:19.625Z,5.57
2023-04-04T23:49:47.055Z,6.13
2023-04-04T23:52:14.689Z,5.90
2023-04-04T23:54:42.098Z,5.93
2023-04-04T23:57:10.855Z,6.03
2023-04-04T23:59:38.226Z,6.10
